Time;durP1;ratioP1;P1;durP2;ratioP2;P2;SDS_P1;SDS_P2;PMS_P1;PMS_P2;Temp;Humidity;BMP_temperature;BMP_pressure;BME280_temperature;BME280_humidity;BME280_pressure;Samples;Min_cycle;Max_cycle;Signal;HPM_P1;HPM_P2
2021/01/18 00:00:20;;;;;;;20.05;8.32;;;-1.30;77.30;;;;;;5011565;28;20072;-66
2021/01/18 00:02:46;;;;;;;17.55;8.48;;;-1.30;77.40;;;;;;5011189;28;20033;-70
2021/01/18 00:05:12;;;;;;;16.02;7.18;;;-1.30;77.80;;;;;;5009730;28;20057;-66
2021/01/18 00:07:48;;;;;;;12.57;6.63;;;-1.40;77.80;;;;;;5003781;28;20553;-67
2021/01/18 00:10:14;;;;;;;;;;;-1.40;78.10;;;;;;5005329;28;20041;-67
2021/01/18 00:12:45;;;;;;;15.13;6.53;;;-1.40;77.90;;;;;;5003303;28;19921;-67
2021/01/18 00:15:11;;;;;;;14.50;6.95;;;-1.40;77.90;;;;;;5006050;28;20565;-67
2021/01/18 00:17:37;;;;;;;15.43;7.82;;;-1.40;77.80;;;;;;5021664;28;20038;-67
2021/01/18 00:20:03;;;;;;;16.75;7.53;;;-1.50;77.90;;;;;;5010168;28;20063;-67
2021/01/18 00:22:29;;;;;;;17.42;7.97;;;-1.50;77.90;;;;;;5012054;28;20045;-67
2021/01/18 00:24:54;;;;;;;14.32;7.60;;;-1.50;78.00;;;;;;5011583;28;20033;-66
2021/01/18 00:27:20;;;;;;;16.00;7.63;;;-1.50;78.00;;;;;;5008993;28;20883;-66
2021/01/18 00:29:48;;;;;;;17.55;8.18;;;-1.50;77.80;;;;;;5014222;28;20037;-66
2021/01/18 00:32:15;;;;;;;16.17;8.10;;;-1.50;77.80;;;;;;5028153;28;20083;-65
2021/01/18 00:34:41;;;;;;;18.85;9.13;;;-1.50;77.90;;;;;;5027624;28;20430;-65
2021/01/18 00:37:07;;;;;;;16.80;8.07;;;-1.50;77.90;;;;;;5009619;28;20744;-65
2021/01/18 00:39:33;;;;;;;17.00;8.60;;;-1.50;77.60;;;;;;5016642;28;20045;-65
2021/01/18 00:41:58;;;;;;;18.35;8.82;;;-1.50;77.80;;;;;;5003608;28;20042;-65
2021/01/18 00:44:24;;;;;;;15.50;7.57;;;-1.50;77.80;;;;;;5003255;28;20048;-65
2021/01/18 00:46:50;;;;;;;15.70;7.53;;;-1.60;77.90;;;;;;5000916;28;20038;-65
2021/01/18 00:49:16;;;;;;;20.30;8.70;;;-1.60;78.10;;;;;;5027281;28;20099;-65
2021/01/18 00:51:42;;;;;;;17.95;8.23;;;-1.60;78.20;;;;;;5013172;28;20445;-65
2021/01/18 00:54:08;;;;;;;21.20;9.70;;;-1.60;77.90;;;;;;5009962;28;20041;-65
2021/01/18 00:56:41;;;;;;;17.42;7.97;;;-1.60;77.90;;;;;;5022245;28;20529;-65
2021/01/18 00:59:15;;;;;;;15.35;8.00;;;-1.60;78.20;;;;;;5024593;28;20034;-65
2021/01/18 01:01:47;;;;;;;19.80;8.80;;;-1.60;77.80;;;;;;5027257;28;20034;-65
2021/01/18 01:04:14;;;;;;;16.20;8.20;;;-1.60;78.20;;;;;;5025196;28;20034;-65
2021/01/18 01:06:40;;;;;;;22.10;11.13;;;-1.60;78.00;;;;;;5012072;28;20161;-65
2021/01/18 01:09:05;;;;;;;19.30;9.38;;;-1.60;77.60;;;;;;5025427;28;20029;-64
2021/01/18 01:11:32;;;;;;;18.85;9.02;;;-1.60;77.50;;;;;;5011734;28;20033;-64
2021/01/18 01:13:58;;;;;;;17.40;8.73;;;-1.60;77.40;;;;;;5011874;28;20176;-65
2021/01/18 01:16:23;;;;;;;22.30;8.32;;;-1.60;77.40;;;;;;5009876;28;20049;-65
2021/01/18 01:18:49;;;;;;;18.77;8.55;;;-1.60;77.20;;;;;;5012461;28;20042;-65
2021/01/18 01:21:15;;;;;;;15.95;8.05;;;-1.60;77.90;;;;;;5025117;28;20075;-65
2021/01/18 01:23:41;;;;;;;18.50;8.18;;;-1.60;77.60;;;;;;5011478;28;20033;-65
2021/01/18 01:26:06;;;;;;;17.25;8.75;;;-1.50;77.50;;;;;;5009482;28;20075;-65
2021/01/18 01:28:32;;;;;;;16.52;7.85;;;-1.50;77.30;;;;;;5011195;28;20029;-65
2021/01/18 01:30:58;;;;;;;18.77;8.55;;;-1.40;77.00;;;;;;5011462;28;20039;-65
2021/01/18 01:33:24;;;;;;;21.45;9.45;;;-1.40;76.70;;;;;;5010762;28;20487;-65
2021/01/18 01:35:49;;;;;;;17.60;9.65;;;-1.40;76.70;;;;;;5012047;28;20116;-65
2021/01/18 01:38:15;;;;;;;22.17;10.02;;;-1.30;76.70;;;;;;5009198;28;20026;-65
2021/01/18 01:40:40;;;;;;;18.48;9.27;;;-1.30;76.50;;;;;;5013850;28;20760;-65
2021/01/18 01:43:06;;;;;;;17.35;8.60;;;-1.30;75.80;;;;;;5008137;28;20030;-65
2021/01/18 01:45:32;;;;;;;20.73;8.95;;;-1.20;75.70;;;;;;5005435;28;20029;-65
2021/01/18 01:47:59;;;;;;;19.48;9.13;;;-1.20;74.90;;;;;;5014558;28;20579;-64
2021/01/18 01:50:34;;;;;;;20.77;9.05;;;-1.20;75.70;;;;;;5009559;28;20120;-64
2021/01/18 01:53:12;;;;;;;16.50;8.32;;;-1.20;75.50;;;;;;5008700;28;20057;-65
2021/01/18 01:55:38;;;;;;;17.95;9.18;;;-1.10;75.40;;;;;;5026895;28;20478;-64
2021/01/18 01:58:06;;;;;;;19.02;9.35;;;-1.10;75.40;;;;;;5013833;28;20805;-65
2021/01/18 02:00:38;;;;;;;16.35;8.45;;;-1.10;75.40;;;;;;5013912;28;20041;-65
2021/01/18 02:03:08;;;;;;;19.50;8.90;;;-1.00;75.60;;;;;;5013361;28;20033;-65
2021/01/18 02:05:35;;;;;;;17.80;8.52;;;-1.00;75.60;;;;;;5014253;28;20116;-65
2021/01/18 02:08:03;;;;;;;18.00;8.05;;;-1.00;75.20;;;;;;5005998;28;20038;-65
2021/01/18 02:10:30;;;;;;;19.52;10.38;;;-0.90;74.80;;;;;;5006142;28;20033;-65
2021/01/18 02:13:00;;;;;;;18.23;8.68;;;-1.00;75.90;;;;;;5005781;28;20799;-65
2021/01/18 02:15:46;;;;;;;16.50;8.77;;;-0.90;74.90;;;;;;5006308;28;20037;-65
2021/01/18 02:18:23;;;;;;;19.83;8.82;;;-0.90;74.30;;;;;;5008098;28;20121;-65
2021/01/18 02:21:07;;;;;;;17.35;7.90;;;-0.90;74.50;;;;;;5005408;28;20061;-65
2021/01/18 02:24:04;;;;;;;19.90;8.90;;;-0.90;74.80;;;;;;5009973;28;20042;-65
2021/01/18 02:27:09;;;;;;;19.20;9.13;;;-0.80;75.20;;;;;;5010262;28;20119;-65
2021/01/18 02:29:44;;;;;;;20.10;9.25;;;-0.80;75.10;;;;;;5009994;28;20042;-65
2021/01/18 02:32:58;;;;;;;19.45;8.65;;;-0.80;75.10;;;;;;5007908;28;20057;-65
2021/01/18 02:35:45;;;;;;;16.23;7.93;;;-0.80;74.90;;;;;;5010449;28;20037;-65
2021/01/18 02:38:22;;;;;;;18.48;8.70;;;-0.80;74.80;;;;;;5006807;28;20037;-65
2021/01/18 02:41:02;;;;;;;16.27;8.63;;;-0.70;74.40;;;;;;5012870;28;20052;-65
2021/01/18 02:43:40;;;;;;;19.45;8.73;;;-0.70;74.80;;;;;;5010340;28;20037;-65
2021/01/18 02:46:07;;;;;;;15.95;8.27;;;-0.70;74.60;;;;;;5006109;28;20121;-65
2021/01/18 02:48:34;;;;;;;15.25;7.70;;;-0.70;74.70;;;;;;5019786;28;20482;-65
2021/01/18 02:51:03;;;;;;;18.65;8.65;;;-0.60;74.70;;;;;;5005257;28;20096;-65
2021/01/18 02:53:29;;;;;;;18.98;9.07;;;-0.60;73.90;;;;;;5005132;28;20040;-65
2021/01/18 02:55:55;;;;;;;18.90;9.60;;;-0.60;73.70;;;;;;5004676;28;20088;-65
2021/01/18 02:58:23;;;;;;;16.85;7.60;;;-0.60;73.90;;;;;;5006251;28;20025;-65
2021/01/18 03:01:14;;;;;;;18.20;8.95;;;-0.50;73.90;;;;;;5003876;28;20038;-65
2021/01/18 03:04:02;;;;;;;21.27;8.05;;;-0.50;73.80;;;;;;5010661;28;20037;-65
2021/01/18 03:06:42;;;;;;;15.43;7.53;;;-0.50;73.80;;;;;;5009438;28;20118;-65
2021/01/18 03:09:15;;;;;;;17.95;8.85;;;-0.50;74.10;;;;;;5005868;28;20601;-65
2021/01/18 03:11:43;;;;;;;17.02;8.75;;;-0.50;73.90;;;;;;5010940;28;20749;-65
2021/01/18 03:14:21;;;;;;;14.25;7.90;;;-0.40;73.60;;;;;;5010606;28;20045;-65
2021/01/18 03:16:49;;;;;;;18.40;8.02;;;-0.30;73.50;;;;;;5011453;28;20033;-65
2021/01/18 03:19:17;;;;;;;16.17;8.32;;;-0.30;73.10;;;;;;5011011;28;20453;-65
2021/01/18 03:21:47;;;;;;;17.13;8.13;;;-0.30;73.20;;;;;;5013206;28;20468;-65
2021/01/18 03:24:22;;;;;;;20.05;9.23;;;-0.30;73.00;;;;;;5011092;28;20030;-65
2021/01/18 03:26:48;;;;;;;13.35;7.70;;;-0.30;72.90;;;;;;5012705;28;20049;-65
2021/01/18 03:29:14;;;;;;;18.98;9.68;;;-0.30;72.90;;;;;;5010537;28;20067;-65
2021/01/18 03:31:39;;;;;;;17.67;8.48;;;-0.20;72.40;;;;;;5012906;28;20029;-65
2021/01/18 03:34:05;;;;;;;17.23;8.48;;;-0.30;72.30;;;;;;5011883;28;20029;-65
2021/01/18 03:36:31;;;;;;;20.02;9.90;;;-0.30;72.80;;;;;;5011574;28;20452;-65
2021/01/18 03:38:57;;;;;;;20.40;9.90;;;-0.30;72.80;;;;;;5012676;28;20037;-65
2021/01/18 03:41:22;;;;;;;19.25;8.23;;;-0.20;72.80;;;;;;5010756;28;20087;-65
2021/01/18 03:43:48;;;;;;;17.70;8.82;;;-0.20;73.20;;;;;;5011668;28;20025;-65
2021/01/18 03:46:14;;;;;;;17.02;8.18;;;-0.30;73.10;;;;;;5005815;28;20330;-65
2021/01/18 03:48:39;;;;;;;18.50;9.40;;;-0.20;73.20;;;;;;5003038;28;20044;-65
2021/01/18 03:51:05;;;;;;;18.98;8.80;;;-0.20;73.40;;;;;;5004587;28;21040;-65
2021/01/18 03:53:30;;;;;;;14.00;7.75;;;-0.20;73.20;;;;;;5003824;28;20493;-65
2021/01/18 03:55:56;;;;;;;19.75;10.60;;;-0.20;73.20;;;;;;5003641;28;20061;-65
2021/01/18 03:58:22;;;;;;;16.95;8.23;;;-0.20;73.20;;;;;;5004823;28;20818;-65
2021/01/18 04:00:47;;;;;;;16.38;8.52;;;-0.20;73.60;;;;;;5003514;28;20728;-65
2021/01/18 04:03:13;;;;;;;18.70;9.18;;;-0.20;73.80;;;;;;5005228;28;20040;-65
2021/01/18 04:05:38;;;;;;;18.58;9.18;;;-0.20;73.60;;;;;;5002443;28;20040;-65
2021/01/18 04:08:04;;;;;;;20.30;10.02;;;-0.20;73.30;;;;;;5003510;28;20087;-65
2021/01/18 04:10:30;;;;;;;14.00;8.05;;;-0.30;73.70;;;;;;5003501;28;20079;-65
2021/01/18 04:12:57;;;;;;;15.63;8.07;;;-0.30;73.90;;;;;;5003421;28;20037;-65
2021/01/18 04:15:25;;;;;;;17.73;9.00;;;-0.30;73.90;;;;;;5004702;28;20041;-65
2021/01/18 04:17:52;;;;;;;19.80;9.63;;;-0.30;74.30;;;;;;5002994;28;20402;-65
2021/01/18 04:20:19;;;;;;;18.60;8.27;;;-0.30;74.30;;;;;;5008435;28;21038;-65
2021/01/18 04:22:50;;;;;;;20.80;9.70;;;-0.30;74.50;;;;;;5008236;28;20034;-65
2021/01/18 04:25:19;;;;;;;21.52;9.80;;;-0.30;74.40;;;;;;5012079;28;20616;-65
2021/01/18 04:27:53;;;;;;;20.27;9.50;;;-0.30;74.40;;;;;;5012352;28;20037;-65
2021/01/18 04:30:26;;;;;;;18.42;8.95;;;-0.30;74.40;;;;;;5008334;28;20046;-65
2021/01/18 04:32:56;;;;;;;18.08;8.77;;;-0.20;75.30;;;;;;5020909;28;20057;-65
2021/01/18 04:35:26;;;;;;;18.67;8.95;;;-0.30;73.80;;;;;;5007200;28;20041;-65
2021/01/18 04:37:53;;;;;;;22.17;9.43;;;-0.30;73.80;;;;;;5001530;28;20037;-65
2021/01/18 04:40:21;;;;;;;16.58;8.88;;;-0.30;73.90;;;;;;5007451;28;20033;-65
2021/01/18 04:42:48;;;;;;;15.60;8.30;;;-0.30;74.40;;;;;;5022617;28;20062;-65
2021/01/18 04:45:15;;;;;;;17.98;9.30;;;-0.30;74.70;;;;;;5004378;28;20042;-65
2021/01/18 04:47:43;;;;;;;20.63;9.77;;;-0.20;74.80;;;;;;5021747;28;20123;-65
2021/01/18 04:50:10;;;;;;;18.52;9.13;;;-0.20;74.20;;;;;;5008320;28;20545;-65
2021/01/18 04:52:49;;;;;;;18.05;8.68;;;-0.20;74.10;;;;;;5022883;28;20030;-65
2021/01/18 04:55:44;;;;;;;19.63;9.50;;;-0.10;73.90;;;;;;5004615;28;20061;-65
2021/01/18 04:58:10;;;;;;;21.52;9.13;;;-0.10;73.90;;;;;;5004966;28;20449;-65
2021/01/18 05:00:43;;;;;;;21.77;10.13;;;-0.10;73.60;;;;;;5002687;28;20734;-65
2021/01/18 05:03:11;;;;;;;19.08;9.88;;;-0.10;73.60;;;;;;5004988;28;20125;-65
2021/01/18 05:06:06;;;;;;;20.65;10.25;;;-0.10;74.00;;;;;;5009299;28;20029;-65
2021/01/18 05:09:03;;;;;;;19.85;9.40;;;-0.10;73.60;;;;;;5027151;28;20033;-65
2021/01/18 05:11:29;;;;;;;18.88;9.48;;;-0.10;74.50;;;;;;5008426;28;20041;-65
2021/01/18 05:14:02;;;;;;;20.77;9.38;;;-0.10;74.10;;;;;;5003004;28;20057;-65
2021/01/18 05:16:35;;;;;;;18.38;8.93;;;-0.10;73.50;;;;;;5007395;28;20029;-65
2021/01/18 05:19:14;;;;;;;20.02;9.05;;;-0.10;73.50;;;;;;5015294;28;20073;-65
2021/01/18 05:21:47;;;;;;;18.40;8.88;;;-0.10;73.90;;;;;;5013027;28;20041;-65
2021/01/18 05:24:16;;;;;;;24.00;9.80;;;0.00;74.30;;;;;;5012910;28;20040;-65
2021/01/18 05:26:41;;;;;;;17.10;8.70;;;0.00;73.40;;;;;;5014796;28;20029;-65
2021/01/18 05:29:07;;;;;;;20.02;9.07;;;0.00;73.20;;;;;;5013124;28;20040;-65
2021/01/18 05:31:35;;;;;;;21.13;10.20;;;0.00;73.20;;;;;;5015722;28;20425;-65
2021/01/18 05:34:11;;;;;;;19.50;9.90;;;0.00;73.50;;;;;;5013559;28;20033;-65
2021/01/18 05:36:47;;;;;;;20.75;9.88;;;0.00;74.10;;;;;;5024158;28;20041;-65
2021/01/18 05:39:16;;;;;;;19.48;9.30;;;0.00;74.20;;;;;;5011358;28;20076;-65
2021/01/18 05:41:43;;;;;;;20.33;9.63;;;0.00;73.70;;;;;;5015028;28;20064;-65
2021/01/18 05:44:10;;;;;;;18.42;8.88;;;-0.10;73.70;;;;;;5009660;28;20116;-65
2021/01/18 05:46:38;;;;;;;20.08;9.95;;;-0.10;74.10;;;;;;5006175;28;20052;-65
2021/01/18 05:49:18;;;;;;;22.50;10.52;;;-0.10;74.00;;;;;;5011980;28;20103;-65
2021/01/18 05:51:51;;;;;;;19.58;10.43;;;-0.10;74.00;;;;;;5009731;28;20034;-65
2021/01/18 05:54:23;;;;;;;21.17;10.02;;;0.00;74.50;;;;;;5007937;28;20041;-65
2021/01/18 05:56:55;;;;;;;22.88;11.30;;;0.00;74.50;;;;;;5004911;28;20695;-66
2021/01/18 05:59:25;;;;;;;23.02;10.60;;;0.00;73.80;;;;;;5013759;28;20042;-65
2021/01/18 06:01:55;;;;;;;18.00;9.55;;;0.00;73.70;;;;;;5030167;28;20037;-65
2021/01/18 06:04:27;;;;;;;20.65;10.77;;;0.10;74.00;;;;;;5012675;28;20034;-65
2021/01/18 06:07:00;;;;;;;18.95;8.98;;;0.10;74.10;;;;;;5015263;28;20084;-65
2021/01/18 06:09:47;;;;;;;20.52;11.27;;;0.10;74.20;;;;;;5012066;28;20947;-65
2021/01/18 06:12:23;;;;;;;22.80;11.77;;;0.20;74.10;;;;;;5023050;28;20040;-65
2021/01/18 06:15:03;;;;;;;22.13;11.68;;;0.10;73.70;;;;;;5018046;28;20041;-65
2021/01/18 06:17:31;;;;;;;24.75;11.43;;;0.20;73.70;;;;;;5019881;28;20041;-65
2021/01/18 06:19:59;;;;;;;24.42;12.55;;;0.10;74.00;;;;;;5025942;28;20502;-65
2021/01/18 06:22:29;;;;;;;23.25;10.55;;;0.20;73.80;;;;;;5031590;28;20036;-65
2021/01/18 06:24:56;;;;;;;19.80;10.07;;;0.20;73.60;;;;;;5004886;28;20117;-65
2021/01/18 06:27:32;;;;;;;20.13;10.88;;;0.20;73.80;;;;;;5020854;28;20037;-65
2021/01/18 06:29:58;;;;;;;26.27;12.15;;;0.20;74.00;;;;;;5005733;28;20883;-65
2021/01/18 06:32:31;;;;;;;21.02;10.45;;;0.20;74.80;;;;;;5011148;28;20123;-65
2021/01/18 06:35:02;;;;;;;22.05;10.40;;;0.20;74.40;;;;;;5016727;28;20038;-65
2021/01/18 06:37:30;;;;;;;24.40;12.55;;;0.20;74.80;;;;;;5017037;28;20041;-65
2021/01/18 06:39:57;;;;;;;20.33;10.98;;;0.20;75.20;;;;;;5017243;28;20052;-65
2021/01/18 06:42:23;;;;;;;24.15;11.13;;;0.20;75.20;;;;;;5017131;28;20585;-65
2021/01/18 06:44:51;;;;;;;19.55;10.18;;;0.20;75.30;;;;;;5014369;28;20035;-65
2021/01/18 06:47:31;;;;;;;21.33;10.95;;;0.20;75.50;;;;;;5021780;28;20132;-65
2021/01/18 06:49:59;;;;;;;25.83;11.63;;;0.20;75.40;;;;;;5017106;28;20034;-65
2021/01/18 06:52:30;;;;;;;23.52;10.98;;;0.20;75.60;;;;;;5036506;28;20129;-65
2021/01/18 06:55:04;;;;;;;23.80;11.35;;;0.20;76.10;;;;;;5023441;28;20033;-65
2021/01/18 06:58:18;;;;;;;26.80;12.93;;;0.20;76.50;;;;;;5018463;28;20042;-65
2021/01/18 07:00:46;;;;;;;24.02;11.60;;;0.30;76.40;;;;;;5014195;28;20517;-65
2021/01/18 07:03:34;;;;;;;25.60;13.10;;;0.20;76.60;;;;;;5015742;28;20033;-65
2021/01/18 07:06:28;;;;;;;26.15;13.82;;;0.20;76.90;;;;;;5017456;28;20049;-65
2021/01/18 07:08:57;;;;;;;31.60;15.20;;;0.20;77.10;;;;;;5014222;28;20124;-65
2021/01/18 07:11:23;;;;;;;27.73;14.50;;;0.20;77.50;;;;;;5011968;28;20144;-65
2021/01/18 07:13:50;;;;;;;28.83;14.63;;;0.20;77.50;;;;;;5013606;28;20114;-65
2021/01/18 07:16:18;;;;;;;27.70;13.15;;;0.20;77.50;;;;;;5010973;28;20033;-65
2021/01/18 07:18:53;;;;;;;26.27;14.23;;;0.30;77.50;;;;;;5013985;28;20044;-65
2021/01/18 07:21:20;;;;;;;29.92;14.88;;;0.30;77.50;;;;;;5009433;28;20132;-65
2021/01/18 07:23:57;;;;;;;30.90;14.93;;;0.20;77.50;;;;;;5004256;28;20140;-65
2021/01/18 07:26:57;;;;;;;29.55;13.93;;;0.30;77.70;;;;;;5029796;28;20041;-65
2021/01/18 07:29:25;;;;;;;27.17;13.57;;;0.20;77.60;;;;;;5010203;28;20039;-65
2021/01/18 07:31:56;;;;;;;28.92;14.13;;;0.20;77.90;;;;;;5003705;28;20025;-65
2021/01/18 07:34:24;;;;;;;27.20;13.60;;;0.30;77.50;;;;;;5011308;28;20033;-65
2021/01/18 07:36:51;;;;;;;26.83;12.85;;;0.30;77.80;;;;;;5017266;28;20043;-65
2021/01/18 07:39:39;;;;;;;25.27;14.27;;;0.30;77.90;;;;;;5006749;28;20140;-65
2021/01/18 07:42:06;;;;;;;26.75;13.63;;;0.30;78.00;;;;;;5016888;28;20072;-65
2021/01/18 07:44:46;;;;;;;26.65;14.35;;;0.30;78.80;;;;;;5007204;28;20033;-65
2021/01/18 07:47:14;;;;;;;26.25;12.25;;;0.30;77.80;;;;;;5015387;28;20052;-65
2021/01/18 07:49:46;;;;;;;28.95;13.45;;;0.40;77.60;;;;;;5020295;28;20119;-65
2021/01/18 07:52:27;;;;;;;27.15;13.23;;;0.40;77.90;;;;;;5006345;28;20038;-65
2021/01/18 07:54:54;;;;;;;30.42;14.57;;;0.40;77.90;;;;;;5013651;28;20033;-65
2021/01/18 07:57:31;;;;;;;32.25;16.30;;;0.50;77.60;;;;;;5010844;28;20092;-65
2021/01/18 08:00:30;;;;;;;56.33;31.73;;;0.50;77.70;;;;;;5013662;28;20056;-65
2021/01/18 08:03:18;;;;;;;39.53;22.63;;;0.60;77.60;;;;;;4979466;28;20060;-65
2021/01/18 08:05:44;;;;;;;45.20;24.50;;;0.60;77.60;;;;;;5012542;28;20840;-65
2021/01/18 08:08:14;;;;;;;42.85;21.98;;;0.60;77.70;;;;;;5023685;28;20031;-65
2021/01/18 08:11:02;;;;;;;37.72;17.35;;;0.60;77.80;;;;;;5014083;28;20128;-65
2021/01/18 08:13:47;;;;;;;32.95;16.40;;;0.60;77.40;;;;;;5016747;28;20028;-65
2021/01/18 08:16:15;;;;;;;35.67;17.42;;;0.60;77.60;;;;;;5024764;28;20073;-65
2021/01/18 08:18:53;;;;;;;34.05;17.02;;;0.70;77.50;;;;;;5021840;28;20669;-65
2021/01/18 08:21:34;;;;;;;31.88;15.80;;;0.70;77.50;;;;;;5020148;28;20132;-65
2021/01/18 08:24:08;;;;;;;33.05;16.27;;;0.80;77.50;;;;;;5011258;28;20034;-65
2021/01/18 08:26:58;;;;;;;31.38;15.18;;;0.80;77.70;;;;;;5040150;28;20108;-65
2021/01/18 08:29:39;;;;;;;34.33;15.85;;;0.80;77.90;;;;;;5008991;28;20041;-65
2021/01/18 08:32:21;;;;;;;33.33;17.35;;;0.80;77.70;;;;;;5004285;28;20050;-65
2021/01/18 08:35:00;;;;;;;32.22;16.27;;;0.90;77.60;;;;;;5010430;28;20111;-65
2021/01/18 08:37:28;;;;;;;34.92;18.20;;;0.90;77.50;;;;;;5006654;28;20057;-65
2021/01/18 08:39:57;;;;;;;31.33;16.02;;;0.90;77.50;;;;;;5012224;28;20033;-65
2021/01/18 08:42:39;;;;;;;32.80;16.92;;;1.00;77.40;;;;;;5014033;28;20724;-65
2021/01/18 08:45:24;;;;;;;34.53;16.27;;;1.10;77.20;;;;;;5010996;28;20033;-65
2021/01/18 08:47:55;;;;;;;35.60;17.48;;;1.10;77.30;;;;;;5011423;28;20037;-65
2021/01/18 08:50:34;;;;;;;33.45;16.50;;;1.10;77.00;;;;;;5012617;28;20033;-65
2021/01/18 08:53:22;;;;;;;33.92;15.77;;;1.20;77.30;;;;;;5008300;28;20029;-65
2021/01/18 08:55:49;;;;;;;41.30;18.35;;;1.20;77.50;;;;;;5023684;28;20029;-65
2021/01/18 08:58:32;;;;;;;28.65;14.35;;;1.30;77.10;;;;;;5014904;28;20064;-65
2021/01/18 09:00:59;;;;;;;32.75;16.42;;;1.30;77.00;;;;;;5029780;28;20032;-65
2021/01/18 09:03:25;;;;;;;38.08;16.75;;;1.30;77.90;;;;;;5019068;28;20021;-65
2021/01/18 09:05:55;;;;;;;32.55;16.65;;;1.40;76.80;;;;;;5006235;28;20753;-65
2021/01/18 09:08:22;;;;;;;35.45;16.60;;;1.40;76.80;;;;;;5014073;28;20472;-65
2021/01/18 09:11:06;;;;;;;32.42;16.33;;;1.40;77.00;;;;;;5021027;28;20083;-65
2021/01/18 09:13:33;;;;;;;35.45;17.52;;;1.40;76.90;;;;;;5012046;28;20037;-65
2021/01/18 09:16:03;;;;;;;38.35;18.20;;;1.50;77.00;;;;;;5006611;28;20734;-65
2021/01/18 09:18:29;;;;;;;37.05;17.90;;;1.40;77.10;;;;;;5012067;28;20049;-65
2021/01/18 09:20:55;;;;;;;36.72;19.30;;;1.50;76.80;;;;;;5024409;28;20034;-65
2021/01/18 09:23:22;;;;;;;34.80;18.83;;;1.50;76.80;;;;;;5017569;28;20057;-66
2021/01/18 09:25:59;;;;;;;32.00;16.70;;;1.60;76.80;;;;;;5020893;28;20041;-65
2021/01/18 09:28:25;;;;;;;35.10;16.75;;;1.70;76.80;;;;;;5011970;28;20051;-66
2021/01/18 09:30:51;;;;;;;39.95;18.50;;;1.80;76.50;;;;;;5017777;28;20489;-65
2021/01/18 09:33:16;;;;;;;40.47;18.65;;;1.90;76.30;;;;;;5019851;28;20045;-65
2021/01/18 09:35:44;;;;;;;35.88;17.85;;;1.90;75.60;;;;;;5006215;28;20116;-66
2021/01/18 09:38:12;;;;;;;39.80;17.73;;;2.00;75.70;;;;;;5028868;28;20037;-66
2021/01/18 09:40:40;;;;;;;36.83;18.30;;;1.90;75.20;;;;;;5012913;28;20056;-66
2021/01/18 09:43:07;;;;;;;31.63;16.75;;;1.90;75.70;;;;;;5014099;28;20112;-66
2021/01/18 09:45:35;;;;;;;38.20;18.13;;;1.90;75.80;;;;;;5014493;28;20037;-66
2021/01/18 09:48:06;;;;;;;31.08;16.30;;;1.90;76.20;;;;;;5014297;28;20125;-66
2021/01/18 09:50:34;;;;;;;42.13;19.52;;;1.90;76.50;;;;;;5031932;28;20038;-67
2021/01/18 09:53:04;;;;;;;33.03;17.38;;;2.00;76.40;;;;;;5013510;28;20826;-65
2021/01/18 09:55:45;;;;;;;39.47;19.27;;;2.10;76.60;;;;;;5022988;28;20046;-65
2021/01/18 09:58:19;;;;;;;33.05;17.17;;;2.30;76.40;;;;;;5017312;28;20413;-66
2021/01/18 10:00:47;;;;;;;38.35;18.23;;;2.40;76.10;;;;;;5007101;28;20033;-65
2021/01/18 10:03:28;;;;;;;35.88;17.60;;;2.40;75.30;;;;;;5027122;28;20034;-65
2021/01/18 10:06:04;;;;;;;39.65;19.08;;;2.40;75.40;;;;;;5020563;28;20069;-65
2021/01/18 10:08:30;;;;;;;41.35;19.30;;;2.40;75.40;;;;;;5013168;28;20081;-65
2021/01/18 10:10:58;;;;;;;43.33;21.15;;;2.50;75.40;;;;;;5015005;28;20049;-65
2021/01/18 10:13:25;;;;;;;40.72;20.10;;;2.60;75.20;;;;;;5024623;28;20826;-65
2021/01/18 10:15:53;;;;;;;35.47;18.17;;;2.70;74.60;;;;;;5005220;28;20383;-70
2021/01/18 10:18:39;;;;;;;42.58;18.85;;;2.60;74.40;;;;;;5010798;28;20116;-66
2021/01/18 10:21:06;;;;;;;37.88;18.08;;;2.60;75.20;;;;;;5007700;28;20064;-65
2021/01/18 10:23:44;;;;;;;37.85;19.02;;;2.60;75.80;;;;;;5010685;28;20025;-66
2021/01/18 10:26:26;;;;;;;40.45;17.80;;;2.60;75.90;;;;;;5012356;28;20762;-64
2021/01/18 10:29:00;;;;;;;36.17;18.23;;;2.70;76.00;;;;;;5005109;28;20402;-66
2021/01/18 10:31:30;;;;;;;35.10;17.90;;;2.70;75.30;;;;;;5021153;28;20033;-66
2021/01/18 10:34:16;;;;;;;40.35;19.20;;;2.70;75.60;;;;;;5015720;28;20048;-74
2021/01/18 10:36:46;;;;;;;39.75;18.60;;;2.70;75.40;;;;;;5011258;28;20782;-65
2021/01/18 10:39:32;;;;;;;40.63;20.23;;;2.60;75.90;;;;;;5016814;28;20043;-66
2021/01/18 10:42:13;;;;;;;40.50;19.17;;;2.60;76.10;;;;;;5015934;28;20040;-64
2021/01/18 10:44:48;;;;;;;49.05;22.98;;;2.70;76.70;;;;;;5008395;28;20497;-66
2021/01/18 10:47:13;;;;;;;37.17;18.33;;;2.70;76.40;;;;;;5006817;28;20470;-65
2021/01/18 10:49:39;;;;;;;44.10;21.90;;;2.70;76.80;;;;;;5004423;28;20029;-66
2021/01/18 10:52:07;;;;;;;43.38;20.33;;;2.70;77.00;;;;;;5019114;28;20962;-65
2021/01/18 10:54:34;;;;;;;36.13;17.98;;;2.70;77.30;;;;;;5015874;28;20160;-63
2021/01/18 10:57:01;;;;;;;36.55;17.45;;;2.80;77.10;;;;;;5034373;28;20056;-65
2021/01/18 10:59:27;;;;;;;37.80;17.38;;;2.80;77.20;;;;;;5023699;28;20156;-66
2021/01/18 11:02:03;;;;;;;37.67;17.88;;;2.90;77.60;;;;;;5011592;28;20045;-65
2021/01/18 11:04:30;;;;;;;39.50;20.05;;;3.00;77.70;;;;;;5016514;28;20116;-66
2021/01/18 11:06:56;;;;;;;41.72;18.98;;;3.00;77.70;;;;;;5018542;28;20180;-64
2021/01/18 11:09:32;;;;;;;39.42;19.08;;;3.10;77.30;;;;;;5020070;28;20471;-62
2021/01/18 11:12:02;;;;;;;39.75;17.38;;;3.20;77.40;;;;;;5025213;28;20083;-64
2021/01/18 11:14:29;;;;;;;43.88;19.77;;;3.30;77.50;;;;;;5015669;28;20127;-64
2021/01/18 11:17:07;;;;;;;41.40;18.10;;;3.30;77.50;;;;;;5015833;28;20041;-62
2021/01/18 11:19:34;;;;;;;47.35;21.67;;;3.40;78.00;;;;;;5004795;28;20037;-63
2021/01/18 11:21:59;;;;;;;47.55;19.23;;;3.50;77.70;;;;;;5004912;28;20033;-64
2021/01/18 11:24:25;;;;;;;41.05;19.58;;;3.50;77.90;;;;;;5015252;28;20034;-62
2021/01/18 11:26:52;;;;;;;37.97;17.83;;;3.50;77.80;;;;;;5011389;28;20088;-64
2021/01/18 11:29:19;;;;;;;45.33;19.77;;;3.50;77.80;;;;;;5031611;28;20038;-63
2021/01/18 11:31:45;;;;;;;43.92;19.13;;;3.60;77.60;;;;;;5026640;28;20360;-62
2021/01/18 11:34:12;;;;;;;37.53;17.45;;;3.60;77.80;;;;;;5008685;28;20805;-61
2021/01/18 11:36:39;;;;;;;42.53;18.45;;;3.60;77.90;;;;;;5015754;28;20476;-63
2021/01/18 11:39:06;;;;;;;39.65;17.85;;;3.70;77.90;;;;;;5017142;28;20814;-62
2021/01/18 11:41:36;;;;;;;53.85;21.23;;;3.70;78.10;;;;;;5022056;28;20822;-63
2021/01/18 11:44:05;;;;;;;46.20;18.13;;;3.70;77.50;;;;;;5039140;28;20041;-63
2021/01/18 11:46:31;;;;;;;50.05;21.70;;;3.70;78.00;;;;;;5010169;28;20120;-63
2021/01/18 11:48:57;;;;;;;40.22;18.75;;;3.70;78.20;;;;;;5020857;28;20093;-63
2021/01/18 11:51:23;;;;;;;47.22;19.35;;;3.80;78.50;;;;;;5025661;28;20037;-62
2021/01/18 11:53:49;;;;;;;44.40;19.15;;;3.80;78.60;;;;;;5011833;28;20057;-64
2021/01/18 11:56:15;;;;;;;54.72;21.88;;;3.80;78.70;;;;;;5010603;28;20103;-64
2021/01/18 11:58:41;;;;;;;45.75;19.77;;;3.80;79.00;;;;;;5010332;28;20124;-64
2021/01/18 12:01:07;;;;;;;51.80;21.92;;;3.80;79.10;;;;;;5023570;28;20044;-64
2021/01/18 12:03:33;;;;;;;47.55;20.88;;;3.90;78.90;;;;;;5004415;28;20038;-63
2021/01/18 12:05:59;;;;;;;40.63;18.73;;;3.90;78.60;;;;;;5011705;28;20060;-64
2021/01/18 12:08:24;;;;;;;45.17;19.50;;;3.90;78.90;;;;;;5021308;28;20037;-64
2021/01/18 12:10:50;;;;;;;52.13;20.63;;;4.00;79.30;;;;;;5012839;28;20134;-64
2021/01/18 12:13:16;;;;;;;63.97;21.77;;;4.00;79.00;;;;;;5014945;28;20537;-64
2021/01/18 12:15:42;;;;;;;43.70;17.88;;;4.10;79.40;;;;;;5013418;28;20432;-64
2021/01/18 12:18:08;;;;;;;46.05;19.02;;;4.10;78.60;;;;;;5008704;28;20049;-63
2021/01/18 12:20:34;;;;;;;46.03;19.33;;;4.20;78.70;;;;;;5003077;28;20034;-64
2021/01/18 12:23:00;;;;;;;44.13;17.38;;;4.20;78.00;;;;;;5013972;28;20827;-64
2021/01/18 12:25:26;;;;;;;55.00;23.05;;;4.30;78.60;;;;;;5016526;28;20025;-63
2021/01/18 12:27:54;;;;;;;43.53;19.58;;;4.30;78.60;;;;;;5026193;28;20037;-63
2021/01/18 12:30:21;;;;;;;48.25;19.90;;;4.40;78.40;;;;;;5020454;28;20048;-64
2021/01/18 12:32:47;;;;;;;54.40;23.48;;;4.40;78.40;;;;;;5026828;28;20066;-63
2021/01/18 12:35:14;;;;;;;43.45;18.33;;;4.50;78.30;;;;;;5013137;28;20037;-64
2021/01/18 12:37:40;;;;;;;38.70;16.35;;;4.50;78.30;;;;;;5011849;28;20033;-64
2021/01/18 12:40:07;;;;;;;50.20;18.42;;;4.50;78.60;;;;;;5018472;28;20029;-64
2021/01/18 12:42:34;;;;;;;42.72;17.80;;;4.50;78.60;;;;;;5023497;28;20037;-64
2021/01/18 12:44:59;;;;;;;38.65;15.45;;;4.60;78.50;;;;;;5010633;28;20045;-64
2021/01/18 12:47:25;;;;;;;40.42;16.52;;;4.60;78.50;;;;;;5019373;28;20038;-63
2021/01/18 12:49:51;;;;;;;36.25;16.63;;;4.70;78.60;;;;;;5017860;28;20032;-64
2021/01/18 12:52:16;;;;;;;43.53;17.63;;;4.80;78.60;;;;;;5014882;28;20043;-64
2021/01/18 12:54:46;;;;;;;39.70;15.30;;;4.80;78.10;;;;;;5022589;28;20405;-64
2021/01/18 12:57:12;;;;;;;40.80;17.02;;;4.80;78.20;;;;;;5015081;28;20128;-64